sensor_id;sensor_type;location;lat;lon;timestamp;P1;durP1;ratioP1;P2;durP2;ratioP2
23802;SDS011;12082;51.786;6.018;2023-07-29T00:01:11;24.73;;;22.80;;
23802;SDS011;12082;51.786;6.018;2023-07-29T00:03:37;25.50;;;23.50;;
23802;SDS011;12082;51.786;6.018;2023-07-29T00:06:02;25.80;;;23.73;;
23802;SDS011;12082;51.786;6.018;2023-07-29T00:08:28;25.60;;;23.60;;
23802;SDS011;12082;51.786;6.018;2023-07-29T00:10:53;24.30;;;22.57;;
23802;SDS011;12082;51.786;6.018;2023-07-29T00:13:19;24.87;;;22.87;;
23802;SDS011;12082;51.786;6.018;2023-07-29T00:15:44;24.73;;;22.83;;
23802;SDS011;12082;51.786;6.018;2023-07-29T00:18:10;24.23;;;22.33;;
23802;SDS011;12082;51.786;6.018;2023-07-29T00:20:35;25.83;;;23.73;;
23802;SDS011;12082;51.786;6.018;2023-07-29T00:23:01;24.67;;;22.37;;
23802;SDS011;12082;51.786;6.018;2023-07-29T00:25:27;26.80;;;24.40;;
23802;SDS011;12082;51.786;6.018;2023-07-29T00:27:56;27.43;;;25.00;;
23802;SDS011;12082;51.786;6.018;2023-07-29T00:30:21;25.87;;;23.63;;
23802;SDS011;12082;51.786;6.018;2023-07-29T00:32:47;26.53;;;24.33;;
23802;SDS011;12082;51.786;6.018;2023-07-29T00:35:12;24.40;;;22.33;;
23802;SDS011;12082;51.786;6.018;2023-07-29T00:37:38;24.63;;;22.73;;
23802;SDS011;12082;51.786;6.018;2023-07-29T00:40:19;24.97;;;23.13;;
23802;SDS011;12082;51.786;6.018;2023-07-29T00:42:45;20.50;;;18.87;;
23802;SDS011;12082;51.786;6.018;2023-07-29T00:45:11;22.40;;;20.70;;
23802;SDS011;12082;51.786;6.018;2023-07-29T00:47:38;23.37;;;21.57;;
23802;SDS011;12082;51.786;6.018;2023-07-29T00:50:04;23.87;;;21.60;;
23802;SDS011;12082;51.786;6.018;2023-07-29T00:52:34;24.63;;;22.87;;
23802;SDS011;12082;51.786;6.018;2023-07-29T00:55:00;24.20;;;22.43;;
23802;SDS011;12082;51.786;6.018;2023-07-29T00:57:26;23.90;;;21.80;;
23802;SDS011;12082;51.786;6.018;2023-07-29T00:59:54;23.87;;;21.83;;
23802;SDS011;12082;51.786;6.018;2023-07-29T01:02:19;26.23;;;23.90;;
23802;SDS011;12082;51.786;6.018;2023-07-29T01:04:45;28.57;;;26.20;;
23802;SDS011;12082;51.786;6.018;2023-07-29T01:15:26;28.07;;;25.77;;
23802;SDS011;12082;51.786;6.018;2023-07-29T01:18:01;29.63;;;27.13;;
23802;SDS011;12082;51.786;6.018;2023-07-29T01:20:34;30.97;;;27.77;;
23802;SDS011;12082;51.786;6.018;2023-07-29T01:23:03;28.53;;;26.13;;
23802;SDS011;12082;51.786;6.018;2023-07-29T01:25:29;28.93;;;26.27;;
23802;SDS011;12082;51.786;6.018;2023-07-29T01:27:54;26.40;;;24.10;;
23802;SDS011;12082;51.786;6.018;2023-07-29T01:30:22;25.33;;;23.43;;
23802;SDS011;12082;51.786;6.018;2023-07-29T01:32:55;29.53;;;27.17;;
23802;SDS011;12082;51.786;6.018;2023-07-29T01:35:28;26.80;;;24.70;;
23802;SDS011;12082;51.786;6.018;2023-07-29T01:38:07;24.50;;;22.60;;
23802;SDS011;12082;51.786;6.018;2023-07-29T01:40:38;23.50;;;21.50;;
23802;SDS011;12082;51.786;6.018;2023-07-29T01:43:05;23.93;;;22.13;;
23802;SDS011;12082;51.786;6.018;2023-07-29T01:45:33;24.50;;;22.73;;
23802;SDS011;12082;51.786;6.018;2023-07-29T01:48:02;22.67;;;21.17;;
23802;SDS011;12082;51.786;6.018;2023-07-29T01:50:29;23.00;;;21.27;;
23802;SDS011;12082;51.786;6.018;2023-07-29T01:52:56;25.47;;;23.33;;
23802;SDS011;12082;51.786;6.018;2023-07-29T01:55:22;25.43;;;23.27;;
23802;SDS011;12082;51.786;6.018;2023-07-29T01:57:48;23.10;;;21.40;;
23802;SDS011;12082;51.786;6.018;2023-07-29T02:00:13;24.23;;;22.23;;
23802;SDS011;12082;51.786;6.018;2023-07-29T02:02:39;24.47;;;22.47;;
23802;SDS011;12082;51.786;6.018;2023-07-29T02:05:05;24.17;;;22.23;;
23802;SDS011;12082;51.786;6.018;2023-07-29T02:07:31;25.17;;;23.20;;
23802;SDS011;12082;51.786;6.018;2023-07-29T02:09:56;27.83;;;25.27;;
23802;SDS011;12082;51.786;6.018;2023-07-29T02:12:22;30.50;;;27.30;;
23802;SDS011;12082;51.786;6.018;2023-07-29T02:14:47;30.90;;;28.00;;
23802;SDS011;12082;51.786;6.018;2023-07-29T02:17:13;30.90;;;27.90;;
23802;SDS011;12082;51.786;6.018;2023-07-29T02:19:38;29.80;;;26.97;;
23802;SDS011;12082;51.786;6.018;2023-07-29T02:22:04;28.77;;;25.77;;
23802;SDS011;12082;51.786;6.018;2023-07-29T02:24:29;30.63;;;28.07;;
23802;SDS011;12082;51.786;6.018;2023-07-29T02:26:55;30.40;;;27.33;;
23802;SDS011;12082;51.786;6.018;2023-07-29T02:29:20;32.80;;;29.87;;
23802;SDS011;12082;51.786;6.018;2023-07-29T02:31:46;30.60;;;27.83;;
23802;SDS011;12082;51.786;6.018;2023-07-29T02:34:12;32.93;;;30.03;;
23802;SDS011;12082;51.786;6.018;2023-07-29T02:36:38;30.50;;;27.80;;
23802;SDS011;12082;51.786;6.018;2023-07-29T02:39:03;32.77;;;29.33;;
23802;SDS011;12082;51.786;6.018;2023-07-29T02:41:29;34.53;;;31.00;;
23802;SDS011;12082;51.786;6.018;2023-07-29T02:43:55;36.57;;;32.97;;
23802;SDS011;12082;51.786;6.018;2023-07-29T02:46:20;31.57;;;28.47;;
23802;SDS011;12082;51.786;6.018;2023-07-29T02:48:46;33.73;;;30.37;;
23802;SDS011;12082;51.786;6.018;2023-07-29T02:51:11;32.07;;;28.90;;
23802;SDS011;12082;51.786;6.018;2023-07-29T02:53:37;35.63;;;30.20;;
23802;SDS011;12082;51.786;6.018;2023-07-29T02:56:03;32.93;;;29.70;;
23802;SDS011;12082;51.786;6.018;2023-07-29T02:58:29;32.50;;;28.77;;
23802;SDS011;12082;51.786;6.018;2023-07-29T03:01:01;35.60;;;32.03;;
23802;SDS011;12082;51.786;6.018;2023-07-29T03:03:27;33.37;;;30.17;;
23802;SDS011;12082;51.786;6.018;2023-07-29T03:06:00;32.10;;;28.90;;
23802;SDS011;12082;51.786;6.018;2023-07-29T03:08:26;32.40;;;29.20;;
23802;SDS011;12082;51.786;6.018;2023-07-29T03:10:52;34.33;;;29.13;;
23802;SDS011;12082;51.786;6.018;2023-07-29T03:13:18;32.13;;;28.93;;
23802;SDS011;12082;51.786;6.018;2023-07-29T03:15:44;32.10;;;28.70;;
23802;SDS011;12082;51.786;6.018;2023-07-29T03:18:09;31.23;;;28.07;;
23802;SDS011;12082;51.786;6.018;2023-07-29T03:20:35;32.77;;;29.43;;
23802;SDS011;12082;51.786;6.018;2023-07-29T03:23:00;29.27;;;26.40;;
23802;SDS011;12082;51.786;6.018;2023-07-29T03:25:26;30.73;;;27.77;;
23802;SDS011;12082;51.786;6.018;2023-07-29T03:27:52;30.70;;;27.43;;
23802;SDS011;12082;51.786;6.018;2023-07-29T03:30:21;27.27;;;24.60;;
23802;SDS011;12082;51.786;6.018;2023-07-29T03:32:47;27.47;;;25.10;;
23802;SDS011;12082;51.786;6.018;2023-07-29T03:35:13;28.00;;;25.50;;
23802;SDS011;12082;51.786;6.018;2023-07-29T03:37:39;29.90;;;27.40;;
23802;SDS011;12082;51.786;6.018;2023-07-29T03:40:05;30.03;;;27.63;;
23802;SDS011;12082;51.786;6.018;2023-07-29T03:42:32;25.93;;;23.80;;
23802;SDS011;12082;51.786;6.018;2023-07-29T03:44:57;25.30;;;23.20;;
23802;SDS011;12082;51.786;6.018;2023-07-29T03:47:23;27.27;;;25.00;;
23802;SDS011;12082;51.786;6.018;2023-07-29T03:49:48;27.77;;;25.63;;
23802;SDS011;12082;51.786;6.018;2023-07-29T03:52:14;27.67;;;25.37;;
23802;SDS011;12082;51.786;6.018;2023-07-29T03:54:40;26.73;;;24.53;;
23802;SDS011;12082;51.786;6.018;2023-07-29T03:57:05;28.00;;;25.87;;
23802;SDS011;12082;51.786;6.018;2023-07-29T03:59:32;26.27;;;24.20;;
23802;SDS011;12082;51.786;6.018;2023-07-29T04:01:58;28.83;;;26.50;;
23802;SDS011;12082;51.786;6.018;2023-07-29T04:04:23;27.73;;;25.33;;
23802;SDS011;12082;51.786;6.018;2023-07-29T04:06:49;28.37;;;26.47;;
23802;SDS011;12082;51.786;6.018;2023-07-29T04:09:14;28.37;;;25.67;;
23802;SDS011;12082;51.786;6.018;2023-07-29T04:11:40;24.33;;;22.23;;
23802;SDS011;12082;51.786;6.018;2023-07-29T04:14:06;30.37;;;28.27;;
23802;SDS011;12082;51.786;6.018;2023-07-29T04:16:31;26.53;;;24.50;;
23802;SDS011;12082;51.786;6.018;2023-07-29T04:18:57;27.97;;;26.17;;
23802;SDS011;12082;51.786;6.018;2023-07-29T04:21:22;26.10;;;24.23;;
23802;SDS011;12082;51.786;6.018;2023-07-29T04:23:48;27.73;;;25.40;;
23802;SDS011;12082;51.786;6.018;2023-07-29T04:26:13;25.90;;;24.17;;
23802;SDS011;12082;51.786;6.018;2023-07-29T04:28:39;23.20;;;21.53;;
23802;SDS011;12082;51.786;6.018;2023-07-29T04:31:04;23.03;;;21.53;;
23802;SDS011;12082;51.786;6.018;2023-07-29T04:33:30;25.00;;;23.20;;
23802;SDS011;12082;51.786;6.018;2023-07-29T04:35:56;22.50;;;21.10;;
23802;SDS011;12082;51.786;6.018;2023-07-29T04:38:22;20.93;;;19.40;;
23802;SDS011;12082;51.786;6.018;2023-07-29T04:40:49;22.07;;;20.63;;
23802;SDS011;12082;51.786;6.018;2023-07-29T04:43:15;20.37;;;19.07;;
23802;SDS011;12082;51.786;6.018;2023-07-29T04:45:43;22.90;;;21.10;;
23802;SDS011;12082;51.786;6.018;2023-07-29T04:48:09;22.27;;;20.77;;
23802;SDS011;12082;51.786;6.018;2023-07-29T04:50:35;18.83;;;17.47;;
23802;SDS011;12082;51.786;6.018;2023-07-29T04:53:00;21.77;;;20.33;;
23802;SDS011;12082;51.786;6.018;2023-07-29T04:55:26;21.97;;;20.57;;
23802;SDS011;12082;51.786;6.018;2023-07-29T04:57:51;23.93;;;22.03;;
23802;SDS011;12082;51.786;6.018;2023-07-29T05:00:17;23.23;;;21.73;;
23802;SDS011;12082;51.786;6.018;2023-07-29T05:02:42;22.67;;;20.77;;
23802;SDS011;12082;51.786;6.018;2023-07-29T05:05:08;22.23;;;20.73;;
23802;SDS011;12082;51.786;6.018;2023-07-29T05:07:33;22.37;;;20.77;;
23802;SDS011;12082;51.786;6.018;2023-07-29T05:09:59;20.80;;;19.47;;
23802;SDS011;12082;51.786;6.018;2023-07-29T05:12:25;22.30;;;20.57;;
23802;SDS011;12082;51.786;6.018;2023-07-29T05:14:50;22.50;;;20.93;;
23802;SDS011;12082;51.786;6.018;2023-07-29T05:17:16;23.63;;;21.93;;
23802;SDS011;12082;51.786;6.018;2023-07-29T05:19:41;23.10;;;21.30;;
23802;SDS011;12082;51.786;6.018;2023-07-29T05:22:07;21.57;;;20.07;;
23802;SDS011;12082;51.786;6.018;2023-07-29T05:24:33;21.07;;;19.57;;
23802;SDS011;12082;51.786;6.018;2023-07-29T05:26:58;22.60;;;19.70;;
23802;SDS011;12082;51.786;6.018;2023-07-29T05:29:24;21.07;;;19.53;;
23802;SDS011;12082;51.786;6.018;2023-07-29T05:31:49;22.07;;;20.37;;
23802;SDS011;12082;51.786;6.018;2023-07-29T05:34:14;20.27;;;18.87;;
23802;SDS011;12082;51.786;6.018;2023-07-29T05:36:40;19.87;;;18.37;;
23802;SDS011;12082;51.786;6.018;2023-07-29T05:39:06;19.73;;;18.33;;
23802;SDS011;12082;51.786;6.018;2023-07-29T05:41:32;21.70;;;19.77;;
23802;SDS011;12082;51.786;6.018;2023-07-29T05:43:57;22.13;;;20.53;;
23802;SDS011;12082;51.786;6.018;2023-07-29T05:46:23;22.73;;;21.13;;
23802;SDS011;12082;51.786;6.018;2023-07-29T05:48:48;21.33;;;19.53;;
23802;SDS011;12082;51.786;6.018;2023-07-29T05:51:14;22.27;;;20.60;;
23802;SDS011;12082;51.786;6.018;2023-07-29T05:53:40;22.60;;;21.00;;
23802;SDS011;12082;51.786;6.018;2023-07-29T05:56:05;23.00;;;21.20;;
23802;SDS011;12082;51.786;6.018;2023-07-29T05:58:31;22.27;;;20.73;;
23802;SDS011;12082;51.786;6.018;2023-07-29T06:00:57;21.67;;;20.10;;
23802;SDS011;12082;51.786;6.018;2023-07-29T06:03:23;24.20;;;22.30;;
23802;SDS011;12082;51.786;6.018;2023-07-29T06:05:48;23.27;;;21.67;;
23802;SDS011;12082;51.786;6.018;2023-07-29T06:08:14;20.73;;;19.13;;
23802;SDS011;12082;51.786;6.018;2023-07-29T06:10:40;21.57;;;20.03;;
23802;SDS011;12082;51.786;6.018;2023-07-29T06:13:05;20.37;;;18.80;;
23802;SDS011;12082;51.786;6.018;2023-07-29T06:15:31;20.00;;;18.70;;
23802;SDS011;12082;51.786;6.018;2023-07-29T06:17:57;18.80;;;17.60;;
23802;SDS011;12082;51.786;6.018;2023-07-29T06:20:22;20.83;;;19.07;;
23802;SDS011;12082;51.786;6.018;2023-07-29T06:22:48;19.90;;;18.30;;
23802;SDS011;12082;51.786;6.018;2023-07-29T06:25:13;17.83;;;16.73;;
23802;SDS011;12082;51.786;6.018;2023-07-29T06:27:39;19.53;;;17.97;;
23802;SDS011;12082;51.786;6.018;2023-07-29T06:30:05;20.30;;;18.50;;
23802;SDS011;12082;51.786;6.018;2023-07-29T06:32:31;17.97;;;16.37;;
23802;SDS011;12082;51.786;6.018;2023-07-29T06:34:57;20.43;;;19.03;;
23802;SDS011;12082;51.786;6.018;2023-07-29T06:37:22;16.07;;;15.07;;
23802;SDS011;12082;51.786;6.018;2023-07-29T06:39:48;16.23;;;14.83;;
23802;SDS011;12082;51.786;6.018;2023-07-29T06:42:14;16.10;;;15.00;;
23802;SDS011;12082;51.786;6.018;2023-07-29T06:44:39;15.10;;;13.97;;
23802;SDS011;12082;51.786;6.018;2023-07-29T06:47:05;15.60;;;14.40;;
23802;SDS011;12082;51.786;6.018;2023-07-29T06:49:32;15.37;;;14.17;;
23802;SDS011;12082;51.786;6.018;2023-07-29T06:51:57;16.93;;;15.43;;
23802;SDS011;12082;51.786;6.018;2023-07-29T06:54:26;16.00;;;14.80;;
23802;SDS011;12082;51.786;6.018;2023-07-29T06:56:51;16.80;;;15.40;;
23802;SDS011;12082;51.786;6.018;2023-07-29T06:59:17;16.00;;;14.90;;
23802;SDS011;12082;51.786;6.018;2023-07-29T07:01:43;16.63;;;15.40;;
23802;SDS011;12082;51.786;6.018;2023-07-29T07:04:08;18.17;;;16.90;;
23802;SDS011;12082;51.786;6.018;2023-07-29T07:06:34;16.90;;;15.43;;
23802;SDS011;12082;51.786;6.018;2023-07-29T07:08:59;15.70;;;14.63;;
23802;SDS011;12082;51.786;6.018;2023-07-29T07:11:25;15.33;;;13.90;;
23802;SDS011;12082;51.786;6.018;2023-07-29T07:13:50;16.27;;;14.70;;
23802;SDS011;12082;51.786;6.018;2023-07-29T07:16:16;13.87;;;12.83;;
23802;SDS011;12082;51.786;6.018;2023-07-29T07:18:41;14.00;;;12.97;;
23802;SDS011;12082;51.786;6.018;2023-07-29T07:21:07;13.07;;;11.93;;
23802;SDS011;12082;51.786;6.018;2023-07-29T07:23:32;12.33;;;11.53;;
23802;SDS011;12082;51.786;6.018;2023-07-29T07:25:58;11.30;;;10.20;;
23802;SDS011;12082;51.786;6.018;2023-07-29T07:28:23;10.80;;;9.70;;
23802;SDS011;12082;51.786;6.018;2023-07-29T07:30:49;10.80;;;10.00;;
23802;SDS011;12082;51.786;6.018;2023-07-29T07:33:15;9.97;;;9.27;;
23802;SDS011;12082;51.786;6.018;2023-07-29T07:35:40;8.67;;;7.90;;
23802;SDS011;12082;51.786;6.018;2023-07-29T07:38:07;10.37;;;9.57;;
23802;SDS011;12082;51.786;6.018;2023-07-29T07:40:34;10.20;;;9.50;;
23802;SDS011;12082;51.786;6.018;2023-07-29T07:43:00;8.77;;;8.17;;
23802;SDS011;12082;51.786;6.018;2023-07-29T07:45:26;8.63;;;7.97;;
23802;SDS011;12082;51.786;6.018;2023-07-29T07:47:53;9.63;;;8.67;;
23802;SDS011;12082;51.786;6.018;2023-07-29T07:50:18;9.77;;;8.97;;
23802;SDS011;12082;51.786;6.018;2023-07-29T07:52:45;9.17;;;8.00;;
23802;SDS011;12082;51.786;6.018;2023-07-29T07:55:10;9.93;;;9.10;;
23802;SDS011;12082;51.786;6.018;2023-07-29T07:57:36;9.70;;;9.10;;
23802;SDS011;12082;51.786;6.018;2023-07-29T08:00:01;9.70;;;8.93;;
23802;SDS011;12082;51.786;6.018;2023-07-29T08:02:29;11.27;;;10.20;;
23802;SDS011;12082;51.786;6.018;2023-07-29T08:04:54;11.73;;;10.93;;
23802;SDS011;12082;51.786;6.018;2023-07-29T08:07:20;13.70;;;12.57;;
23802;SDS011;12082;51.786;6.018;2023-07-29T08:09:45;12.90;;;12.10;;
23802;SDS011;12082;51.786;6.018;2023-07-29T08:12:11;12.77;;;11.73;;
23802;SDS011;12082;51.786;6.018;2023-07-29T08:14:37;14.83;;;13.77;;
23802;SDS011;12082;51.786;6.018;2023-07-29T08:17:02;13.20;;;12.20;;
23802;SDS011;12082;51.786;6.018;2023-07-29T08:19:28;12.60;;;11.90;;
23802;SDS011;12082;51.786;6.018;2023-07-29T08:21:53;12.70;;;12.00;;
23802;SDS011;12082;51.786;6.018;2023-07-29T08:24:19;16.20;;;15.03;;
23802;SDS011;12082;51.786;6.018;2023-07-29T08:26:44;15.97;;;15.07;;
23802;SDS011;12082;51.786;6.018;2023-07-29T08:29:10;16.67;;;15.77;;
23802;SDS011;12082;51.786;6.018;2023-07-29T08:31:37;16.23;;;15.30;;
23802;SDS011;12082;51.786;6.018;2023-07-29T08:34:02;19.60;;;18.50;;
23802;SDS011;12082;51.786;6.018;2023-07-29T08:36:28;17.63;;;16.63;;
23802;SDS011;12082;51.786;6.018;2023-07-29T08:38:53;18.37;;;17.27;;
23802;SDS011;12082;51.786;6.018;2023-07-29T08:41:21;17.53;;;16.53;;
23802;SDS011;12082;51.786;6.018;2023-07-29T08:46:16;17.93;;;16.83;;
23802;SDS011;12082;51.786;6.018;2023-07-29T08:48:42;16.40;;;15.40;;
23802;SDS011;12082;51.786;6.018;2023-07-29T08:51:09;14.67;;;13.83;;
23802;SDS011;12082;51.786;6.018;2023-07-29T08:53:36;14.47;;;13.53;;
23802;SDS011;12082;51.786;6.018;2023-07-29T08:56:02;15.63;;;14.63;;
23802;SDS011;12082;51.786;6.018;2023-07-29T08:58:28;13.83;;;12.83;;
23802;SDS011;12082;51.786;6.018;2023-07-29T09:00:54;11.50;;;10.80;;
23802;SDS011;12082;51.786;6.018;2023-07-29T09:03:20;10.20;;;9.50;;
23802;SDS011;12082;51.786;6.018;2023-07-29T09:05:46;9.17;;;8.50;;
23802;SDS011;12082;51.786;6.018;2023-07-29T09:08:12;9.30;;;8.40;;
23802;SDS011;12082;51.786;6.018;2023-07-29T09:10:38;9.43;;;8.73;;
23802;SDS011;12082;51.786;6.018;2023-07-29T09:13:04;10.37;;;9.57;;
23802;SDS011;12082;51.786;6.018;2023-07-29T09:15:31;10.20;;;9.60;;
23802;SDS011;12082;51.786;6.018;2023-07-29T09:18:07;10.87;;;9.90;;
23802;SDS011;12082;51.786;6.018;2023-07-29T09:20:39;11.30;;;10.50;;
23802;SDS011;12082;51.786;6.018;2023-07-29T09:23:06;11.93;;;11.23;;
23802;SDS011;12082;51.786;6.018;2023-07-29T09:25:34;9.67;;;9.03;;
23802;SDS011;12082;51.786;6.018;2023-07-29T09:27:59;8.60;;;8.10;;
23802;SDS011;12082;51.786;6.018;2023-07-29T09:30:26;8.83;;;8.13;;
23802;SDS011;12082;51.786;6.018;2023-07-29T09:32:54;8.87;;;7.73;;
23802;SDS011;12082;51.786;6.018;2023-07-29T09:35:20;8.57;;;7.97;;
23802;SDS011;12082;51.786;6.018;2023-07-29T09:37:46;8.30;;;7.80;;
23802;SDS011;12082;51.786;6.018;2023-07-29T09:40:13;8.40;;;7.80;;
23802;SDS011;12082;51.786;6.018;2023-07-29T09:42:42;8.20;;;7.70;;
23802;SDS011;12082;51.786;6.018;2023-07-29T09:45:20;7.33;;;6.93;;
23802;SDS011;12082;51.786;6.018;2023-07-29T09:47:48;7.57;;;7.07;;
23802;SDS011;12082;51.786;6.018;2023-07-29T09:50:15;8.30;;;7.80;;
23802;SDS011;12082;51.786;6.018;2023-07-29T09:52:41;7.63;;;7.00;;
23802;SDS011;12082;51.786;6.018;2023-07-29T09:55:09;8.67;;;8.03;;
23802;SDS011;12082;51.786;6.018;2023-07-29T09:57:39;7.50;;;7.10;;
23802;SDS011;12082;51.786;6.018;2023-07-29T10:00:05;7.67;;;7.17;;
23802;SDS011;12082;51.786;6.018;2023-07-29T10:02:36;7.70;;;7.20;;
23802;SDS011;12082;51.786;6.018;2023-07-29T10:05:06;8.13;;;7.63;;
23802;SDS011;12082;51.786;6.018;2023-07-29T10:07:33;8.17;;;7.57;;
23802;SDS011;12082;51.786;6.018;2023-07-29T10:10:02;8.93;;;8.03;;
23802;SDS011;12082;51.786;6.018;2023-07-29T10:12:30;7.97;;;7.47;;
23802;SDS011;12082;51.786;6.018;2023-07-29T10:14:58;7.63;;;7.23;;
23802;SDS011;12082;51.786;6.018;2023-07-29T10:17:26;7.73;;;7.23;;
23802;SDS011;12082;51.786;6.018;2023-07-29T10:19:52;8.53;;;7.67;;
23802;SDS011;12082;51.786;6.018;2023-07-29T10:22:20;7.90;;;7.50;;
23802;SDS011;12082;51.786;6.018;2023-07-29T10:24:49;8.23;;;7.73;;
23802;SDS011;12082;51.786;6.018;2023-07-29T10:27:16;7.17;;;6.87;;
23802;SDS011;12082;51.786;6.018;2023-07-29T10:29:44;8.30;;;7.73;;
23802;SDS011;12082;51.786;6.018;2023-07-29T10:32:11;8.07;;;7.57;;
23802;SDS011;12082;51.786;6.018;2023-07-29T10:34:36;7.43;;;6.90;;
23802;SDS011;12082;51.786;6.018;2023-07-29T10:37:03;8.47;;;7.93;;
23802;SDS011;12082;51.786;6.018;2023-07-29T10:39:37;7.70;;;7.20;;
23802;SDS011;12082;51.786;6.018;2023-07-29T10:42:05;7.83;;;7.43;;
23802;SDS011;12082;51.786;6.018;2023-07-29T10:49:52;7.63;;;7.13;;
23802;SDS011;12082;51.786;6.018;2023-07-29T10:55:00;8.00;;;7.50;;
23802;SDS011;12082;51.786;6.018;2023-07-29T10:57:31;6.97;;;6.57;;
23802;SDS011;12082;51.786;6.018;2023-07-29T10:59:58;7.20;;;6.60;;
23802;SDS011;12082;51.786;6.018;2023-07-29T11:02:31;7.33;;;6.77;;
23802;SDS011;12082;51.786;6.018;2023-07-29T11:04:58;6.60;;;6.20;;
23802;SDS011;12082;51.786;6.018;2023-07-29T11:07:27;7.77;;;7.37;;
23802;SDS011;12082;51.786;6.018;2023-07-29T11:10:00;6.70;;;6.40;;
23802;SDS011;12082;51.786;6.018;2023-07-29T11:12:41;7.40;;;6.70;;
23802;SDS011;12082;51.786;6.018;2023-07-29T11:20:27;6.97;;;6.57;;
23802;SDS011;12082;51.786;6.018;2023-07-29T11:22:54;6.30;;;5.90;;
23802;SDS011;12082;51.786;6.018;2023-07-29T11:25:22;7.87;;;7.47;;
23802;SDS011;12082;51.786;6.018;2023-07-29T11:27:50;7.33;;;6.93;;
23802;SDS011;12082;51.786;6.018;2023-07-29T11:30:17;7.93;;;7.43;;
23802;SDS011;12082;51.786;6.018;2023-07-29T11:32:44;7.43;;;6.83;;
23802;SDS011;12082;51.786;6.018;2023-07-29T11:37:40;7.77;;;7.20;;
23802;SDS011;12082;51.786;6.018;2023-07-29T11:40:07;7.70;;;7.23;;
23802;SDS011;12082;51.786;6.018;2023-07-29T11:42:35;7.27;;;6.93;;
23802;SDS011;12082;51.786;6.018;2023-07-29T11:45:02;8.33;;;7.63;;
23802;SDS011;12082;51.786;6.018;2023-07-29T11:47:29;8.17;;;7.67;;
23802;SDS011;12082;51.786;6.018;2023-07-29T11:49:57;7.77;;;7.17;;
23802;SDS011;12082;51.786;6.018;2023-07-29T11:52:25;8.30;;;7.80;;
23802;SDS011;12082;51.786;6.018;2023-07-29T11:54:52;9.00;;;8.50;;
23802;SDS011;12082;51.786;6.018;2023-07-29T11:57:18;8.13;;;7.67;;
23802;SDS011;12082;51.786;6.018;2023-07-29T11:59:43;9.43;;;8.47;;
23802;SDS011;12082;51.786;6.018;2023-07-29T12:02:12;14.23;;;9.80;;
23802;SDS011;12082;51.786;6.018;2023-07-29T12:04:40;10.87;;;9.73;;
23802;SDS011;12082;51.786;6.018;2023-07-29T12:07:07;14.43;;;13.30;;
23802;SDS011;12082;51.786;6.018;2023-07-29T12:09:34;16.40;;;15.60;;
23802;SDS011;12082;51.786;6.018;2023-07-29T12:12:00;24.03;;;22.70;;
23802;SDS011;12082;51.786;6.018;2023-07-29T12:14:30;30.13;;;28.57;;
23802;SDS011;12082;51.786;6.018;2023-07-29T12:16:56;23.03;;;21.57;;
23802;SDS011;12082;51.786;6.018;2023-07-29T12:19:30;27.00;;;25.13;;
23802;SDS011;12082;51.786;6.018;2023-07-29T12:22:01;33.80;;;31.87;;
23802;SDS011;12082;51.786;6.018;2023-07-29T12:24:29;40.60;;;38.20;;
23802;SDS011;12082;51.786;6.018;2023-07-29T12:26:55;47.60;;;45.20;;
23802;SDS011;12082;51.786;6.018;2023-07-29T12:29:21;51.03;;;48.67;;
23802;SDS011;12082;51.786;6.018;2023-07-29T12:31:47;51.17;;;48.63;;
23802;SDS011;12082;51.786;6.018;2023-07-29T12:34:17;44.47;;;42.43;;
23802;SDS011;12082;51.786;6.018;2023-07-29T12:36:45;49.63;;;47.20;;
23802;SDS011;12082;51.786;6.018;2023-07-29T12:39:25;43.73;;;41.67;;
23802;SDS011;12082;51.786;6.018;2023-07-29T12:41:52;40.13;;;38.20;;
23802;SDS011;12082;51.786;6.018;2023-07-29T12:44:19;38.83;;;37.03;;
23802;SDS011;12082;51.786;6.018;2023-07-29T12:46:45;44.37;;;42.23;;
23802;SDS011;12082;51.786;6.018;2023-07-29T12:49:11;32.23;;;30.73;;
23802;SDS011;12082;51.786;6.018;2023-07-29T12:51:36;35.37;;;33.73;;
23802;SDS011;12082;51.786;6.018;2023-07-29T12:54:03;39.30;;;37.37;;
23802;SDS011;12082;51.786;6.018;2023-07-29T12:56:30;33.90;;;32.07;;
23802;SDS011;12082;51.786;6.018;2023-07-29T12:58:56;38.13;;;36.10;;
23802;SDS011;12082;51.786;6.018;2023-07-29T13:01:23;34.37;;;32.57;;
23802;SDS011;12082;51.786;6.018;2023-07-29T13:03:49;32.37;;;30.70;;
23802;SDS011;12082;51.786;6.018;2023-07-29T13:06:15;30.03;;;28.60;;
23802;SDS011;12082;51.786;6.018;2023-07-29T13:08:41;31.73;;;30.03;;
23802;SDS011;12082;51.786;6.018;2023-07-29T13:11:06;35.13;;;33.23;;
23802;SDS011;12082;51.786;6.018;2023-07-29T13:13:32;31.80;;;30.23;;
23802;SDS011;12082;51.786;6.018;2023-07-29T13:15:58;31.27;;;29.37;;
23802;SDS011;12082;51.786;6.018;2023-07-29T13:18:23;29.93;;;28.40;;
23802;SDS011;12082;51.786;6.018;2023-07-29T13:20:49;31.50;;;29.57;;
23802;SDS011;12082;51.786;6.018;2023-07-29T13:23:15;27.87;;;25.90;;
23802;SDS011;12082;51.786;6.018;2023-07-29T13:25:40;31.83;;;29.70;;
23802;SDS011;12082;51.786;6.018;2023-07-29T13:28:06;29.80;;;27.90;;
23802;SDS011;12082;51.786;6.018;2023-07-29T13:30:32;25.00;;;23.70;;
23802;SDS011;12082;51.786;6.018;2023-07-29T13:32:58;25.33;;;23.73;;
23802;SDS011;12082;51.786;6.018;2023-07-29T13:35:23;27.00;;;25.50;;
23802;SDS011;12082;51.786;6.018;2023-07-29T13:37:49;26.50;;;24.70;;
23802;SDS011;12082;51.786;6.018;2023-07-29T13:40:15;27.17;;;25.53;;
23802;SDS011;12082;51.786;6.018;2023-07-29T13:42:40;21.37;;;20.07;;
23802;SDS011;12082;51.786;6.018;2023-07-29T13:45:06;20.77;;;19.27;;
23802;SDS011;12082;51.786;6.018;2023-07-29T13:47:32;20.70;;;19.30;;
23802;SDS011;12082;51.786;6.018;2023-07-29T13:49:57;16.33;;;15.43;;
23802;SDS011;12082;51.786;6.018;2023-07-29T13:52:24;18.17;;;17.07;;
23802;SDS011;12082;51.786;6.018;2023-07-29T13:54:49;14.27;;;13.43;;
23802;SDS011;12082;51.786;6.018;2023-07-29T13:57:15;13.93;;;13.07;;
23802;SDS011;12082;51.786;6.018;2023-07-29T13:59:40;14.73;;;13.93;;
23802;SDS011;12082;51.786;6.018;2023-07-29T14:02:06;11.83;;;11.17;;
23802;SDS011;12082;51.786;6.018;2023-07-29T14:04:32;11.93;;;11.23;;
23802;SDS011;12082;51.786;6.018;2023-07-29T14:06:58;11.03;;;10.43;;
23802;SDS011;12082;51.786;6.018;2023-07-29T14:09:23;11.57;;;10.77;;
23802;SDS011;12082;51.786;6.018;2023-07-29T14:11:49;11.10;;;10.50;;
23802;SDS011;12082;51.786;6.018;2023-07-29T14:14:15;10.63;;;10.00;;
23802;SDS011;12082;51.786;6.018;2023-07-29T14:16:40;9.97;;;9.00;;
23802;SDS011;12082;51.786;6.018;2023-07-29T14:19:06;11.60;;;11.00;;
23802;SDS011;12082;51.786;6.018;2023-07-29T14:21:32;10.53;;;9.93;;
23802;SDS011;12082;51.786;6.018;2023-07-29T14:23:57;11.40;;;10.80;;
23802;SDS011;12082;51.786;6.018;2023-07-29T14:26:23;11.27;;;10.67;;
23802;SDS011;12082;51.786;6.018;2023-07-29T14:28:49;9.63;;;9.13;;
23802;SDS011;12082;51.786;6.018;2023-07-29T14:31:15;10.47;;;9.90;;
23802;SDS011;12082;51.786;6.018;2023-07-29T14:33:42;9.80;;;9.20;;
23802;SDS011;12082;51.786;6.018;2023-07-29T14:36:08;9.63;;;9.10;;
23802;SDS011;12082;51.786;6.018;2023-07-29T14:38:34;10.07;;;9.33;;
23802;SDS011;12082;51.786;6.018;2023-07-29T14:40:59;8.33;;;7.93;;
23802;SDS011;12082;51.786;6.018;2023-07-29T14:43:25;9.90;;;9.13;;
23802;SDS011;12082;51.786;6.018;2023-07-29T14:45:51;8.47;;;7.97;;
23802;SDS011;12082;51.786;6.018;2023-07-29T14:48:16;8.13;;;7.63;;
23802;SDS011;12082;51.786;6.018;2023-07-29T14:50:42;7.73;;;7.33;;